Time;durP1;ratioP1;P1;durP2;ratioP2;P2;SDS_P1;SDS_P2;PMS_P1;PMS_P2;Temp;Humidity;BMP_temperature;BMP_pressure;BME280_temperature;BME280_humidity;BME280_pressure;Samples;Min_cycle;Max_cycle;Signal;HPM_P1;HPM_P2
2021/12/06 00:00:58;;;;;;;18.57;11.22;;;;;;;2.04;67.38;100223.70;1808553;78;21050;-67
2021/12/06 00:03:36;;;;;;;20.45;12.20;;;;;;;2.06;67.37;100230.12;1798013;78;21095;-68
2021/12/06 00:06:03;;;;;;;20.43;11.48;;;;;;;2.06;67.28;100222.80;1805414;78;20999;-66
2021/12/06 00:08:31;;;;;;;19.87;12.75;;;;;;;2.05;67.34;100219.34;1808438;77;21124;-66
2021/12/06 00:10:57;;;;;;;24.63;13.70;;;;;;;2.06;67.33;100217.14;1802647;78;21656;-66
2021/12/06 00:13:25;;;;;;;26.17;14.50;;;;;;;2.06;67.41;100217.14;1805839;78;21066;-67
2021/12/06 00:15:52;;;;;;;22.62;12.55;;;;;;;2.07;67.39;100224.02;1798214;77;21104;-67
2021/12/06 00:18:19;;;;;;;23.57;13.15;;;;;;;2.06;67.64;100215.01;1799801;78;21525;-66
2021/12/06 00:20:46;;;;;;;22.15;12.58;;;;;;;2.09;67.66;100209.68;1805886;78;21104;-66
2021/12/06 00:23:13;;;;;;;22.90;14.00;;;;;;;2.15;67.73;100208.93;1809354;78;21089;-66
2021/12/06 00:25:39;;;;;;;26.50;14.47;;;;;;;2.27;67.93;100208.80;1809921;78;20991;-66
2021/12/06 00:28:05;;;;;;;23.47;13.70;;;;;;;2.37;67.83;100213.06;1810918;78;21380;-67
2021/12/06 00:30:33;;;;;;;26.68;16.62;;;;;;;2.37;67.86;100215.66;1809639;78;21636;-67
2021/12/06 00:32:59;;;;;;;28.10;16.07;;;;;;;2.36;67.91;100215.30;1812254;78;21046;-67
2021/12/06 00:35:26;;;;;;;24.87;15.08;;;;;;;2.31;67.86;100214.21;1809651;78;21098;-67
2021/12/06 00:38:01;;;;;;;26.52;15.70;;;;;;;2.29;67.96;100212.62;1802371;78;21074;-67
2021/12/06 00:40:35;;;;;;;24.32;15.72;;;;;;;2.27;68.00;100210.53;1800801;78;21003;-66
2021/12/06 00:43:04;;;;;;;30.40;18.35;;;;;;;2.24;68.17;100207.64;1800596;78;21106;-66
2021/12/06 00:45:31;;;;;;;29.63;16.60;;;;;;;2.25;68.06;100209.30;1799946;78;21664;-66
2021/12/06 00:47:57;;;;;;;28.60;15.93;;;;;;;2.23;68.13;100209.84;1803721;78;21134;-66
2021/12/06 00:50:26;;;;;;;29.48;15.75;;;;;;;2.22;68.12;100201.69;1774666;78;21459;-66
2021/12/06 00:52:52;;;;;;;27.40;15.65;;;;;;;2.33;67.92;100197.26;1799304;78;21055;-67
2021/12/06 00:55:20;;;;;;;30.08;17.35;;;;;;;2.39;67.86;100200.40;1803780;78;21058;-67
2021/12/06 00:57:49;;;;;;;29.67;17.25;;;;;;;2.45;68.05;100190.63;1799897;78;21004;-67
2021/12/06 01:00:27;;;;;;;29.00;17.20;;;;;;;2.48;68.19;100194.38;1809176;78;21107;-67
2021/12/06 01:02:53;;;;;;;29.82;17.32;;;;;;;2.51;68.33;100191.62;1802807;78;21041;-67
2021/12/06 01:05:23;;;;;;;27.22;16.50;;;;;;;2.52;68.16;100193.30;1808008;78;21108;-69
2021/12/06 01:07:51;;;;;;;29.95;17.98;;;;;;;2.51;68.11;100192.93;1827673;77;21030;-67
2021/12/06 01:10:17;;;;;;;28.40;17.55;;;;;;;2.49;68.13;100186.94;1785502;78;21103;-67
2021/12/06 01:12:44;;;;;;;32.35;15.53;;;;;;;2.47;68.05;100192.24;1788651;78;21083;-67
2021/12/06 01:15:11;;;;;;;24.80;16.05;;;;;;;2.48;68.09;100192.61;1804168;78;21070;-67
2021/12/06 01:17:37;;;;;;;27.07;16.40;;;;;;;2.55;67.95;100189.25;1812897;78;21471;-66
2021/12/06 01:20:07;;;;;;;23.83;14.35;;;;;;;2.58;67.74;100185.20;1811110;77;21014;-67
2021/12/06 01:22:45;;;;;;;27.40;16.40;;;;;;;2.61;67.89;100186.35;1812765;77;21160;-67
2021/12/06 01:25:21;;;;;;;24.60;15.53;;;;;;;2.65;67.97;100183.14;1810193;77;21118;-67
2021/12/06 01:27:50;;;;;;;25.30;15.58;;;;;;;2.66;68.20;100183.53;1814532;78;21520;-66
2021/12/06 01:30:37;;;;;;;25.25;16.12;;;;;;;2.67;68.29;100187.33;1817388;77;21043;-66
2021/12/06 01:33:26;;;;;;;24.85;15.75;;;;;;;2.66;68.17;100180.47;1812386;77;21029;-66
2021/12/06 01:40:59;;;;;;;22.07;14.18;;;;;;;2.50;68.24;100170.45;1809867;77;21027;-65
2021/12/06 01:43:26;;;;;;;24.67;14.87;;;;;;;2.45;68.42;100167.25;1812213;78;21033;-64
2021/12/06 01:45:53;;;;;;;24.85;15.80;;;;;;;2.43;68.49;100170.39;1821240;77;21033;-65
2021/12/06 01:48:20;;;;;;;20.25;13.28;;;;;;;2.37;68.59;100159.83;1816502;78;21393;-64
2021/12/06 01:50:46;;;;;;;20.52;13.32;;;;;;;2.43;68.58;100150.91;1817057;77;21078;-64
2021/12/06 01:53:14;;;;;;;19.45;12.13;;;;;;;2.51;68.50;100150.08;1803609;78;21035;-64
2021/12/06 01:55:41;;;;;;;21.73;13.18;;;;;;;2.56;68.58;100154.58;1799363;77;21085;-62
2021/12/06 01:58:09;;;;;;;21.40;13.72;;;;;;;2.64;68.84;100149.84;1810058;77;21046;-63
2021/12/06 02:00:48;;;;;;;20.60;12.18;;;;;;;2.69;68.92;100159.53;1795618;77;21029;-62
2021/12/06 02:03:17;;;;;;;20.60;11.85;;;;;;;2.69;68.81;100144.38;1812435;77;21124;-63
2021/12/06 02:05:48;;;;;;;21.17;12.00;;;;;;;2.67;68.84;100149.66;1810723;77;21097;-63
2021/12/06 02:08:15;;;;;;;19.23;12.10;;;;;;;2.68;68.95;100155.71;1817917;78;20991;-62
2021/12/06 02:10:43;;;;;;;18.87;11.48;;;;;;;2.67;68.74;100152.72;1823020;77;21153;-62
2021/12/06 02:13:11;;;;;;;19.57;11.03;;;;;;;2.61;68.73;100152.58;1813940;78;21022;-61
2021/12/06 02:15:44;;;;;;;21.45;11.25;;;;;;;2.60;68.79;100161.28;1823242;77;21114;-61
2021/12/06 02:18:15;;;;;;;18.87;10.30;;;;;;;2.64;68.84;100148.97;1831660;77;21054;-62
2021/12/06 02:20:57;;;;;;;16.00;10.15;;;;;;;2.76;68.66;100154.86;1843605;76;21466;-61
2021/12/06 02:23:13;;;;;;;18.25;11.08;;;;;;;2.85;68.64;100150.95;1810048;77;21023;-61
2021/12/06 02:25:39;;;;;;;18.12;10.00;;;;;;;2.91;68.54;100158.44;1831451;75;20994;-61
2021/12/06 02:28:06;;;;;;;15.63;9.18;;;;;;;2.89;68.58;100157.22;1819345;77;22304;-60
2021/12/06 02:30:34;;;;;;;14.53;9.38;;;;;;;2.89;68.78;100152.45;1841169;76;20982;-61
2021/12/06 02:33:01;;;;;;;15.08;9.03;;;;;;;2.91;68.79;100146.27;1849673;75;21707;-60
2021/12/06 02:35:29;;;;;;;19.02;10.45;;;;;;;2.90;68.54;100146.34;1836793;77;21597;-60
2021/12/06 02:37:57;;;;;;;21.42;9.60;;;;;;;2.86;68.48;100143.52;1832145;77;21026;-60
2021/12/06 02:40:28;;;;;;;16.85;10.28;;;;;;;2.83;68.53;100141.09;1844862;76;21125;-60
2021/12/06 02:42:54;;;;;;;14.58;9.08;;;;;;;2.78;68.52;100148.66;1842759;76;21045;-60
2021/12/06 02:45:24;;;;;;;15.63;9.75;;;;;;;2.78;68.46;100142.16;1836977;77;21510;-61
2021/12/06 02:47:54;;;;;;;14.00;8.58;;;;;;;2.86;68.33;100146.11;1825478;77;21078;-60
2021/12/06 02:50:25;;;;;;;13.48;7.70;;;;;;;2.91;68.16;100138.94;1831030;77;21114;-60
2021/12/06 02:52:54;;;;;;;13.93;7.47;;;;;;;2.95;68.25;100142.58;1843835;76;21134;-61
2021/12/06 02:55:31;;;;;;;15.40;9.05;;;;;;;2.97;68.33;100145.93;1849067;76;21509;-61
2021/12/06 02:57:56;;;;;;;15.98;9.28;;;;;;;2.99;68.49;100140.66;1852150;76;21126;-61
2021/12/06 03:00:22;;;;;;;17.40;9.03;;;;;;;2.98;68.49;100136.39;1813909;77;21119;-60
2021/12/06 03:02:49;;;;;;;17.80;9.35;;;;;;;2.99;68.34;100147.16;1850308;76;21000;-60
2021/12/06 03:05:16;;;;;;;15.70;8.98;;;;;;;2.99;68.45;100149.75;1790731;77;21136;-61
2021/12/06 03:07:47;;;;;;;19.02;10.20;;;;;;;3.01;68.36;100149.23;1844512;75;21475;-61
2021/12/06 03:10:13;;;;;;;16.45;9.60;;;;;;;3.00;68.17;100150.14;1833379;75;21026;-61
2021/12/06 03:12:40;;;;;;;15.53;9.40;;;;;;;2.96;67.93;100146.04;1843353;76;21050;-61
2021/12/06 03:15:07;;;;;;;16.80;9.65;;;;;;;2.93;67.95;100143.59;1835590;77;21065;-61
2021/12/06 03:17:34;;;;;;;17.57;10.00;;;;;;;2.96;67.82;100146.04;1830398;75;21119;-61
2021/12/06 03:20:01;;;;;;;18.92;9.98;;;;;;;3.03;67.55;100145.27;1838980;75;21466;-61
2021/12/06 03:22:29;;;;;;;17.82;9.63;;;;;;;3.07;67.46;100141.09;1835936;75;21506;-61
2021/12/06 03:24:56;;;;;;;20.27;10.75;;;;;;;3.11;67.51;100146.53;1843047;76;21026;-61
2021/12/06 03:27:23;;;;;;;16.97;9.75;;;;;;;3.10;67.57;100154.41;1817649;77;21061;-61
2021/12/06 03:29:51;;;;;;;17.67;10.35;;;;;;;3.06;67.54;100161.53;1818534;77;21755;-61
2021/12/06 03:32:19;;;;;;;16.77;10.13;;;;;;;3.02;67.57;100154.80;1820583;76;21065;-61
2021/12/06 03:34:46;;;;;;;16.67;9.60;;;;;;;2.96;67.58;100149.94;1793395;77;21081;-61
2021/12/06 03:37:13;;;;;;;17.57;10.25;;;;;;;2.94;67.70;100153.91;1822351;77;21013;-61
2021/12/06 03:39:45;;;;;;;14.83;9.18;;;;;;;2.90;67.71;100150.25;1819250;76;21638;-61
2021/12/06 03:42:15;;;;;;;14.73;9.65;;;;;;;2.86;67.69;100152.17;1826233;76;21173;-61
2021/12/06 03:44:43;;;;;;;16.73;10.55;;;;;;;2.84;67.67;100151.42;1799813;77;21074;-61
2021/12/06 03:47:16;;;;;;;16.87;9.85;;;;;;;2.85;67.72;100154.84;1816781;77;21527;-61
2021/12/06 03:49:43;;;;;;;17.52;9.80;;;;;;;2.93;67.66;100155.29;1810218;77;21096;-61
2021/12/06 03:52:13;;;;;;;16.50;9.40;;;;;;;2.99;67.48;100153.65;1820035;77;21002;-61
2021/12/06 03:54:41;;;;;;;15.68;8.95;;;;;;;3.03;67.80;100164.28;1784744;79;21145;-61
2021/12/06 03:57:08;;;;;;;16.07;9.68;;;;;;;3.06;68.14;100169.77;1809283;77;21580;-61
2021/12/06 03:59:35;;;;;;;16.50;9.10;;;;;;;3.09;67.97;100174.38;1838501;76;21035;-61
2021/12/06 04:02:01;;;;;;;17.45;9.25;;;;;;;3.07;67.69;100168.39;1834167;76;21090;-62
2021/12/06 04:04:29;;;;;;;18.12;9.70;;;;;;;3.05;67.57;100165.51;1821492;77;21137;-61
2021/12/06 04:06:56;;;;;;;16.57;9.75;;;;;;;3.03;67.64;100159.55;1830354;76;21441;-62
2021/12/06 04:09:24;;;;;;;15.40;8.83;;;;;;;3.03;67.71;100163.45;1807152;77;21074;-60
2021/12/06 04:11:50;;;;;;;16.27;9.78;;;;;;;3.03;67.64;100156.48;1837744;75;21556;-61
2021/12/06 04:14:17;;;;;;;15.10;8.90;;;;;;;3.00;67.45;100153.22;1829760;77;21117;-60
2021/12/06 04:16:44;;;;;;;14.58;8.35;;;;;;;3.01;67.19;100147.94;1831927;77;21593;-61
2021/12/06 04:19:11;;;;;;;16.97;9.38;;;;;;;3.05;67.10;100138.21;1845517;75;21142;-61
2021/12/06 04:21:39;;;;;;;12.68;7.42;;;;;;;3.11;67.11;100133.53;1820469;77;21587;-61
2021/12/06 04:24:06;;;;;;;15.98;8.50;;;;;;;3.13;67.12;100134.28;1821180;77;21053;-61
2021/12/06 04:26:33;;;;;;;12.58;8.03;;;;;;;3.13;67.37;100150.35;1810575;77;21065;-61
2021/12/06 04:29:01;;;;;;;14.85;8.33;;;;;;;3.12;67.38;100144.29;1852627;76;21053;-60
2021/12/06 04:31:34;;;;;;;15.72;9.43;;;;;;;3.12;67.39;100147.36;1844399;77;22240;-61
2021/12/06 04:34:01;;;;;;;15.90;8.98;;;;;;;3.10;67.39;100144.84;1839606;76;21058;-60
2021/12/06 04:36:28;;;;;;;15.28;9.63;;;;;;;3.07;67.21;100151.97;1843611;77;21481;-60
2021/12/06 04:38:54;;;;;;;14.25;9.00;;;;;;;3.03;67.25;100151.76;1845688;75;21327;-60
2021/12/06 04:41:21;;;;;;;15.93;8.63;;;;;;;2.99;67.30;100148.45;1826675;77;21529;-61
2021/12/06 04:43:48;;;;;;;15.53;7.67;;;;;;;2.96;67.23;100147.34;1832230;76;21046;-60
2021/12/06 04:46:14;;;;;;;15.25;9.05;;;;;;;2.99;67.22;100147.16;1820863;76;21683;-60
2021/12/06 04:48:42;;;;;;;13.58;8.28;;;;;;;3.03;67.11;100147.39;1817727;76;21068;-61
2021/12/06 04:51:10;;;;;;;17.65;9.65;;;;;;;3.11;67.03;100152.16;1823252;77;21037;-60
2021/12/06 04:53:39;;;;;;;14.63;8.48;;;;;;;3.13;67.12;100155.55;1821540;77;21065;-61
2021/12/06 04:56:14;;;;;;;14.83;9.28;;;;;;;3.12;67.31;100155.98;1816224;77;21132;-60
2021/12/06 04:58:59;;;;;;;14.63;8.60;;;;;;;3.12;67.47;100157.29;1822585;77;20994;-61
2021/12/06 05:01:28;;;;;;;17.02;8.08;;;;;;;3.12;67.36;100153.39;1829216;77;21034;-63
2021/12/06 05:03:57;;;;;;;16.48;8.73;;;;;;;3.08;67.33;100154.48;1838523;77;21100;-64
2021/12/06 05:06:28;;;;;;;14.87;9.08;;;;;;;3.07;67.34;100154.56;1838794;77;21052;-60
2021/12/06 05:09:00;;;;;;;13.45;8.38;;;;;;;3.01;67.23;100153.58;1839873;75;21791;-63
2021/12/06 05:11:29;;;;;;;13.88;8.30;;;;;;;2.98;67.37;100154.12;1834023;76;21073;-62
2021/12/06 05:14:00;;;;;;;13.98;8.73;;;;;;;2.98;67.39;100156.72;1818690;77;21056;-59
2021/12/06 05:16:27;;;;;;;13.83;7.25;;;;;;;3.06;67.18;100158.93;1813354;76;21065;-60
2021/12/06 05:18:53;;;;;;;14.58;8.18;;;;;;;3.13;67.03;100162.88;1839083;77;21034;-60
2021/12/06 05:21:20;;;;;;;16.55;8.68;;;;;;;3.18;67.03;100156.14;1821169;77;21046;-60
2021/12/06 05:23:47;;;;;;;15.00;9.00;;;;;;;3.20;67.12;100165.17;1837835;75;21624;-59
2021/12/06 05:26:13;;;;;;;16.37;8.30;;;;;;;3.21;67.38;100161.19;1835089;75;20990;-59
2021/12/06 05:28:43;;;;;;;17.67;9.53;;;;;;;3.21;67.21;100166.83;1834085;76;20991;-58
2021/12/06 05:32:36;;;;;;;17.05;8.73;;;;;;;3.24;67.13;100165.38;1843469;76;22618;-60
2021/12/06 05:35:07;;;;;;;15.28;9.03;;;;;;;3.14;67.10;100167.17;1814058;77;21050;-60
2021/12/06 05:37:38;;;;;;;19.12;9.25;;;;;;;3.11;67.22;100173.83;1823966;77;21076;-60
2021/12/06 05:40:08;;;;;;;16.97;10.32;;;;;;;3.08;67.26;100170.55;1818117;78;21012;-60
2021/12/06 05:42:34;;;;;;;15.28;9.08;;;;;;;3.05;67.32;100172.01;1821750;77;21087;-60
2021/12/06 05:45:01;;;;;;;16.20;9.20;;;;;;;3.01;67.39;100168.73;1818131;77;21034;-60
2021/12/06 05:47:27;;;;;;;17.75;8.83;;;;;;;3.03;67.36;100165.59;1814732;77;21322;-59
2021/12/06 05:49:53;;;;;;;15.63;9.25;;;;;;;3.12;67.18;100170.29;1815948;77;21183;-60
2021/12/06 05:52:20;;;;;;;18.00;9.40;;;;;;;3.19;67.08;100172.58;1814334;77;21450;-60
2021/12/06 05:54:46;;;;;;;16.95;9.35;;;;;;;3.23;67.17;100175.38;1811986;78;21023;-60
2021/12/06 05:57:12;;;;;;;15.72;9.08;;;;;;;3.22;67.22;100176.32;1814915;77;21111;-60
2021/12/06 05:59:40;;;;;;;14.70;8.15;;;;;;;3.21;67.45;100166.39;1820119;78;21076;-60
2021/12/06 06:02:07;;;;;;;16.70;9.33;;;;;;;3.23;67.44;100168.88;1812235;77;22682;-59
2021/12/06 06:04:35;;;;;;;22.07;9.88;;;;;;;3.23;67.21;100171.48;1809212;77;21109;-60
2021/12/06 06:07:02;;;;;;;16.50;9.50;;;;;;;3.21;67.26;100177.23;1812655;77;21125;-60
2021/12/06 06:09:29;;;;;;;17.02;8.88;;;;;;;3.18;67.29;100179.55;1819331;77;21046;-60
2021/12/06 06:11:55;;;;;;;14.55;9.53;;;;;;;3.15;67.28;100175.33;1814817;77;21453;-60
2021/12/06 06:14:22;;;;;;;16.12;9.35;;;;;;;3.14;67.26;100184.52;1812335;77;21096;-61
2021/12/06 06:16:52;;;;;;;15.08;8.60;;;;;;;3.14;67.33;100190.57;1812973;77;21037;-60
2021/12/06 06:19:22;;;;;;;15.13;8.43;;;;;;;3.21;67.17;100198.03;1818692;77;21624;-60
2021/12/06 06:21:49;;;;;;;16.12;8.00;;;;;;;3.28;67.09;100197.64;1819448;77;21049;-63
2021/12/06 06:24:16;;;;;;;15.05;7.95;;;;;;;3.36;67.08;100193.31;1811311;77;21073;-60
2021/12/06 06:26:42;;;;;;;16.97;10.20;;;;;;;3.39;67.16;100197.06;1817876;77;21090;-60
2021/12/06 06:29:10;;;;;;;14.78;8.73;;;;;;;3.39;67.18;100196.23;1810271;77;20991;-60
2021/12/06 06:31:37;;;;;;;17.05;9.15;;;;;;;3.38;67.18;100199.30;1810848;77;21693;-60
2021/12/06 06:34:04;;;;;;;17.52;9.98;;;;;;;3.38;67.10;100201.04;1812258;77;21544;-61
2021/12/06 06:36:31;;;;;;;16.42;9.20;;;;;;;3.37;67.33;100191.11;1808272;77;21172;-59
2021/12/06 06:38:58;;;;;;;17.90;9.70;;;;;;;3.38;67.18;100185.44;1774084;78;21085;-59
2021/12/06 06:41:25;;;;;;;16.90;9.05;;;;;;;3.37;67.17;100188.51;1769085;78;21523;-59
2021/12/06 06:43:51;;;;;;;15.13;9.48;;;;;;;3.34;67.05;100188.66;1777128;78;21076;-59
2021/12/06 06:46:18;;;;;;;18.87;10.32;;;;;;;3.28;67.13;100183.81;1772350;78;21030;-59
2021/12/06 06:48:44;;;;;;;18.65;9.33;;;;;;;3.23;67.24;100186.64;1756664;80;21064;-60
2021/12/06 06:51:11;;;;;;;17.17;8.75;;;;;;;3.26;67.23;100183.89;1758293;80;22180;-59
2021/12/06 06:53:38;;;;;;;16.20;8.93;;;;;;;3.35;67.12;100188.58;1774721;79;21040;-60
2021/12/06 06:56:04;;;;;;;20.65;9.93;;;;;;;3.42;67.21;100188.27;1774201;79;21038;-61
2021/12/06 06:58:31;;;;;;;14.85;8.93;;;;;;;3.50;67.26;100190.00;1766541;79;21050;-59
2021/12/06 07:00:58;;;;;;;14.98;9.25;;;;;;;3.56;67.16;100197.93;1776549;79;21019;-60
2021/12/06 07:03:31;;;;;;;19.27;9.73;;;;;;;3.58;67.19;100202.14;1767708;79;21620;-65
2021/12/06 07:05:54;;;;;;;18.65;10.78;;;;;;;3.58;67.04;100202.14;1769683;79;21079;-57
2021/12/06 07:08:21;;;;;;;16.07;9.65;;;;;;;3.57;67.16;100203.52;1756959;79;20990;-59
2021/12/06 07:10:50;;;;;;;16.80;9.80;;;;;;;3.56;67.01;100203.13;1769480;79;21097;-59
2021/12/06 07:13:16;;;;;;;18.12;9.43;;;;;;;3.50;66.97;100197.34;1767558;79;21054;-62
2021/12/06 07:15:43;;;;;;;17.45;10.32;;;;;;;3.49;67.13;100192.21;1760939;79;21102;-62
2021/12/06 07:18:11;;;;;;;17.12;10.65;;;;;;;3.49;67.18;100200.84;1749135;80;21080;-61
2021/12/06 07:20:37;;;;;;;18.50;10.63;;;;;;;3.45;67.02;100203.25;1767744;80;21113;-61
2021/12/06 07:23:04;;;;;;;18.12;11.88;;;;;;;3.42;67.06;100192.17;1769846;79;21128;-61
2021/12/06 07:25:34;;;;;;;18.77;11.20;;;;;;;3.42;67.05;100200.80;1772937;79;21058;-62
2021/12/06 07:28:03;;;;;;;21.62;10.90;;;;;;;3.50;66.92;100199.94;1769286;80;21964;-60
2021/12/06 07:30:30;;;;;;;18.82;10.18;;;;;;;3.57;66.94;100197.02;1780780;79;21065;-58
2021/12/06 07:32:57;;;;;;;20.40;10.65;;;;;;;3.61;66.90;100200.65;1763213;79;21171;-60
2021/12/06 07:35:23;;;;;;;21.00;11.50;;;;;;;3.67;67.15;100196.89;1769437;80;21593;-62
2021/12/06 07:37:49;;;;;;;20.75;10.80;;;;;;;3.71;67.28;100204.42;1783197;78;21111;-55
2021/12/06 07:40:16;;;;;;;17.27;10.23;;;;;;;3.71;67.14;100207.50;1772163;78;21053;-54
2021/12/06 07:42:43;;;;;;;20.75;11.70;;;;;;;3.69;66.96;100210.66;1776031;78;21041;-55
2021/12/06 07:45:11;;;;;;;18.73;11.20;;;;;;;3.64;66.84;100210.89;1762193;80;21100;-65
2021/12/06 07:47:38;;;;;;;20.48;11.22;;;;;;;3.60;66.88;100218.94;1757138;80;21039;-65
2021/12/06 07:50:10;;;;;;;20.82;11.43;;;;;;;3.56;67.03;100213.06;1764208;79;21031;-64
2021/12/06 07:52:37;;;;;;;22.35;11.83;;;;;;;3.52;67.08;100212.39;1766619;79;21078;-63
2021/12/06 07:55:06;;;;;;;19.00;10.63;;;;;;;3.48;67.18;100216.09;1764894;79;21066;-65
2021/12/06 07:57:33;;;;;;;17.87;10.08;;;;;;;3.45;67.25;100216.25;1778104;80;21042;-64
2021/12/06 07:59:59;;;;;;;18.35;11.33;;;;;;;3.46;67.26;100217.08;1762214;79;21537;-64
2021/12/06 08:02:26;;;;;;;16.85;10.00;;;;;;;3.54;67.20;100223.55;1751875;80;21083;-63
2021/12/06 08:05:29;;;;;;;16.97;8.75;;;;;;;3.63;67.37;100228.75;1752525;79;21137;-61
2021/12/06 08:07:28;;;;;;;15.83;9.43;;;;;;;3.73;67.41;100229.07;1763505;79;21047;-63
2021/12/06 08:09:54;;;;;;;18.12;10.45;;;;;;;3.79;67.20;100229.22;1768789;80;21096;-62
2021/12/06 08:12:21;;;;;;;18.17;9.83;;;;;;;3.80;67.25;100235.65;1770548;79;21098;-63
2021/12/06 08:14:47;;;;;;;17.92;9.98;;;;;;;3.77;67.20;100225.39;1771633;80;21108;-63
2021/12/06 08:17:15;;;;;;;18.52;10.23;;;;;;;3.76;67.19;100229.38;1768275;79;21125;-63
2021/12/06 08:19:42;;;;;;;17.87;8.98;;;;;;;3.73;67.21;100234.28;1772609;80;21510;-64
2021/12/06 08:22:08;;;;;;;19.27;9.45;;;;;;;3.70;67.29;100235.30;1767439;80;21072;-65
2021/12/06 08:24:35;;;;;;;21.27;10.75;;;;;;;3.67;67.13;100228.95;1761457;80;21105;-63
2021/12/06 08:27:02;;;;;;;17.70;9.98;;;;;;;3.63;67.29;100233.95;1773993;80;21054;-65
2021/12/06 08:29:29;;;;;;;18.27;10.00;;;;;;;3.61;67.52;100227.14;1766868;79;21133;-64
2021/12/06 08:31:55;;;;;;;17.50;9.63;;;;;;;3.60;67.56;100222.84;1758907;79;21074;-63
2021/12/06 08:34:22;;;;;;;14.53;8.33;;;;;;;3.63;67.44;100216.18;1766153;79;20990;-64
2021/12/06 08:36:49;;;;;;;17.98;9.45;;;;;;;3.75;67.25;100219.87;1771791;80;21112;-65
2021/12/06 08:39:15;;;;;;;16.20;8.88;;;;;;;3.84;67.33;100217.63;1771869;80;21030;-63
2021/12/06 08:41:42;;;;;;;15.18;9.18;;;;;;;3.95;67.41;100209.69;1790734;79;21102;-66
2021/12/06 08:44:08;;;;;;;14.90;8.25;;;;;;;4.02;67.31;100203.23;1795040;78;21073;-65
2021/12/06 08:46:37;;;;;;;15.23;8.23;;;;;;;4.04;67.34;100204.81;1788597;78;21505;-65
2021/12/06 08:49:05;;;;;;;17.95;8.55;;;;;;;4.09;67.28;100204.09;1787884;78;20996;-66
2021/12/06 08:51:42;;;;;;;14.15;9.10;;;;;;;4.08;67.02;100205.48;1791244;78;21545;-65
2021/12/06 08:54:08;;;;;;;;;;;;;;;4.07;66.92;100199.44;1795776;79;21346;-65
2021/12/06 08:56:35;;;;;;;16.80;9.73;;;;;;;4.05;66.92;100197.39;1755780;80;25741;-65
2021/12/06 08:59:03;;;;;;;16.87;9.68;;;;;;;3.97;67.01;100189.60;1763403;80;21055;-66
2021/12/06 09:01:30;;;;;;;15.38;8.63;;;;;;;3.94;67.09;100186.72;1768962;80;21597;-64
2021/12/06 09:03:56;;;;;;;18.60;10.28;;;;;;;3.95;67.16;100179.30;1764901;80;21062;-63
2021/12/06 09:06:22;;;;;;;16.17;8.55;;;;;;;3.93;66.93;100175.92;1759726;80;21102;-63
2021/12/06 09:08:49;;;;;;;15.40;8.68;;;;;;;3.95;67.02;100171.49;1766878;80;21057;-63
2021/12/06 09:11:17;;;;;;;15.93;9.58;;;;;;;4.03;66.86;100171.05;1763184;80;21062;-65
2021/12/06 09:13:43;;;;;;;14.43;9.13;;;;;;;4.08;66.70;100167.28;1768090;80;21470;-64
2021/12/06 09:16:11;;;;;;;14.95;8.53;;;;;;;4.13;66.72;100173.98;1762728;80;21095;-64
2021/12/06 09:18:41;;;;;;;18.67;9.98;;;;;;;4.13;66.86;100160.95;1765361;80;21066;-64
2021/12/06 09:21:15;;;;;;;18.80;10.30;;;;;;;4.13;66.84;100160.95;1759635;79;21110;-66
2021/12/06 09:23:42;;;;;;;16.17;9.98;;;;;;;4.11;66.92;100158.44;1763952;80;21035;-65
2021/12/06 09:26:08;;;;;;;19.92;10.43;;;;;;;4.12;66.81;100161.43;1763198;79;21118;-64
2021/12/06 09:28:35;;;;;;;17.80;9.65;;;;;;;4.08;66.80;100152.09;1762726;80;21138;-65
2021/12/06 09:31:04;;;;;;;19.65;10.68;;;;;;;4.07;66.96;100152.57;1757752;80;21193;-65
2021/12/06 09:33:32;;;;;;;23.90;12.07;;;;;;;4.04;66.82;100157.94;1758751;79;21082;-65
2021/12/06 09:35:59;;;;;;;18.57;11.45;;;;;;;4.02;66.83;100151.16;1752911;79;21482;-65
2021/12/06 09:38:33;;;;;;;19.90;10.95;;;;;;;4.04;66.92;100148.00;1754735;79;21071;-66
2021/12/06 09:40:57;;;;;;;20.05;11.30;;;;;;;4.12;66.65;100146.25;1752439;80;21066;-65
2021/12/06 09:43:24;;;;;;;18.52;10.45;;;;;;;4.19;66.61;100141.09;1752970;79;21652;-66
2021/12/06 09:45:50;;;;;;;19.73;11.22;;;;;;;4.23;66.59;100145.18;1758318;80;21059;-66
2021/12/06 09:48:18;;;;;;;24.52;11.03;;;;;;;4.22;66.76;100138.28;1757643;81;21601;-65
2021/12/06 09:50:55;;;;;;;18.80;11.43;;;;;;;4.20;66.76;100137.09;1755241;80;21061;-61
2021/12/06 09:53:25;;;;;;;20.40;11.65;;;;;;;4.18;66.90;100138.92;1749219;79;21078;-61
2021/12/06 09:55:54;;;;;;;19.25;11.20;;;;;;;4.16;66.74;100136.88;1763949;80;21142;-64
2021/12/06 09:58:20;;;;;;;22.37;12.88;;;;;;;4.13;66.91;100138.82;1764222;79;21110;-64
2021/12/06 10:00:54;;;;;;;22.48;12.60;;;;;;;4.11;66.99;100132.40;1761551;80;21058;-65
2021/12/06 10:03:22;;;;;;;26.65;12.75;;;;;;;4.09;66.95;100129.88;1775854;79;21046;-65
2021/12/06 10:05:51;;;;;;;22.73;11.75;;;;;;;4.06;66.84;100126.14;1765821;79;21055;-65
2021/12/06 10:08:18;;;;;;;17.62;11.08;;;;;;;4.05;66.99;100121.88;1773154;79;22111;-65
2021/12/06 10:10:47;;;;;;;22.13;12.13;;;;;;;4.13;66.78;100116.22;1766159;79;21082;-65
2021/12/06 10:13:16;;;;;;;24.32;13.58;;;;;;;4.17;66.77;100110.36;1762988;80;22393;-62
2021/12/06 10:15:43;;;;;;;25.12;12.35;;;;;;;4.21;66.65;100113.18;1764794;80;21051;-61
2021/12/06 10:18:16;;;;;;;25.70;13.62;;;;;;;4.21;66.83;100115.31;1763899;79;21564;-58
2021/12/06 10:20:43;;;;;;;22.67;12.80;;;;;;;4.21;67.15;100107.50;1760513;80;21056;-62
2021/12/06 10:23:08;;;;;;;26.33;14.53;;;;;;;4.21;67.24;100104.89;1765666;79;21078;-62
2021/12/06 10:25:39;;;;;;;24.45;14.58;;;;;;;4.22;67.23;100098.77;1764741;80;21089;-61
2021/12/06 10:28:07;;;;;;;24.50;13.78;;;;;;;4.23;67.12;100102.20;1768679;79;21066;-64
2021/12/06 10:30:42;;;;;;;25.82;13.70;;;;;;;4.20;67.09;100098.03;1770324;80;21054;-63
2021/12/06 10:33:16;;;;;;;27.37;13.35;;;;;;;4.18;67.11;100105.07;1767857;79;21580;-64
2021/12/06 10:35:45;;;;;;;25.90;13.28;;;;;;;4.14;67.01;100100.98;1784890;78;21492;-67
2021/12/06 10:38:14;;;;;;;25.20;13.38;;;;;;;4.10;66.94;100096.86;1768917;80;21089;-64
2021/12/06 10:40:41;;;;;;;23.07;13.40;;;;;;;4.05;67.25;100107.56;1753477;80;21073;-64
2021/12/06 10:43:10;;;;;;;25.30;12.58;;;;;;;4.06;67.20;100106.61;1783520;79;21127;-65
2021/12/06 10:45:47;;;;;;;20.65;11.18;;;;;;;4.13;67.08;100112.78;1774949;80;21124;-66
2021/12/06 10:48:21;;;;;;;20.48;11.65;;;;;;;4.16;66.95;100108.23;1781747;79;21049;-64
2021/12/06 10:50:58;;;;;;;21.07;11.88;;;;;;;4.21;67.02;100110.58;1770781;79;21501;-60
2021/12/06 10:53:44;;;;;;;20.95;11.18;;;;;;;4.23;67.18;100117.36;1768968;80;21053;-64
2021/12/06 10:56:25;;;;;;;19.98;12.33;;;;;;;4.22;67.21;100115.70;1777498;79;21121;-67
2021/12/06 10:58:44;;;;;;;20.33;12.47;;;;;;;4.18;67.16;100117.27;1767213;78;21127;-77
2021/12/06 11:01:18;;;;;;;23.85;12.90;;;;;;;4.15;67.19;100107.84;1768756;80;21058;-67
2021/12/06 11:03:52;;;;;;;22.27;11.83;;;;;;;4.13;67.28;100097.98;1771251;79;21124;-63
2021/12/06 11:06:24;;;;;;;20.85;12.58;;;;;;;4.10;67.32;100091.65;1768112;79;21244;-61
2021/12/06 11:08:55;;;;;;;21.97;11.43;;;;;;;4.09;67.43;100092.13;1768698;78;21088;-63
2021/12/06 11:11:31;;;;;;;20.70;11.60;;;;;;;4.07;67.44;100093.16;1771650;80;21143;-70
2021/12/06 11:14:03;;;;;;;20.72;10.20;;;;;;;4.07;67.45;100095.28;1773858;79;21101;-70
2021/12/06 11:16:35;;;;;;;23.47;11.63;;;;;;;4.10;67.45;100086.44;1782711;80;21120;-67
2021/12/06 11:19:11;;;;;;;19.05;11.33;;;;;;;4.20;67.28;100088.91;1759651;80;21755;-70
2021/12/06 11:21:42;;;;;;;22.07;11.12;;;;;;;4.26;66.99;100083.33;1783036;79;21071;-70
2021/12/06 11:24:25;;;;;;;23.52;12.47;;;;;;;4.27;67.19;100080.28;1788937;78;21090;-70
2021/12/06 11:27:05;;;;;;;21.12;11.55;;;;;;;4.29;67.54;100070.60;1755333;80;21111;-67
2021/12/06 11:29:40;;;;;;;21.75;12.37;;;;;;;4.31;67.50;100064.00;1751200;80;21007;-68
2021/12/06 11:32:15;;;;;;;23.25;12.23;;;;;;;4.29;67.43;100062.78;1767067;80;21536;-69
2021/12/06 11:34:57;;;;;;;19.57;11.85;;;;;;;4.27;67.49;100066.78;1781137;79;21031;-69